sensor_id;sensor_type;location;lat;lon;timestamp;temperature;humidity
22765;DHT22;11549;50.852;3.816;2023-07-20T00:01:22;18.30;99.90
22765;DHT22;11549;50.852;3.816;2023-07-20T00:03:51;18.10;99.90
22765;DHT22;11549;50.852;3.816;2023-07-20T00:06:25;18.20;99.90
22765;DHT22;11549;50.852;3.816;2023-07-20T00:08:55;18.20;99.90
22765;DHT22;11549;50.852;3.816;2023-07-20T00:11:27;18.10;99.90
22765;DHT22;11549;50.852;3.816;2023-07-20T00:13:56;18.10;99.90
22765;DHT22;11549;50.852;3.816;2023-07-20T00:16:24;18.00;99.90
22765;DHT22;11549;50.852;3.816;2023-07-20T00:18:53;18.00;99.90
22765;DHT22;11549;50.852;3.816;2023-07-20T00:21:22;18.10;99.90
22765;DHT22;11549;50.852;3.816;2023-07-20T00:23:51;18.10;99.90
22765;DHT22;11549;50.852;3.816;2023-07-20T00:26:19;18.10;99.90
22765;DHT22;11549;50.852;3.816;2023-07-20T00:28:50;18.10;99.90
22765;DHT22;11549;50.852;3.816;2023-07-20T00:31:19;18.10;99.90
22765;DHT22;11549;50.852;3.816;2023-07-20T00:33:47;18.00;99.90
22765;DHT22;11549;50.852;3.816;2023-07-20T00:36:16;17.90;99.90
22765;DHT22;11549;50.852;3.816;2023-07-20T00:38:44;18.00;99.90
22765;DHT22;11549;50.852;3.816;2023-07-20T00:41:14;17.90;99.90
22765;DHT22;11549;50.852;3.816;2023-07-20T00:43:43;17.80;99.90
22765;DHT22;11549;50.852;3.816;2023-07-20T00:46:11;17.80;99.90
22765;DHT22;11549;50.852;3.816;2023-07-20T00:48:40;17.80;99.90
22765;DHT22;11549;50.852;3.816;2023-07-20T00:51:10;17.80;99.90
22765;DHT22;11549;50.852;3.816;2023-07-20T00:53:39;17.70;99.90
22765;DHT22;11549;50.852;3.816;2023-07-20T00:56:07;17.70;99.90
22765;DHT22;11549;50.852;3.816;2023-07-20T00:58:37;17.60;99.90
22765;DHT22;11549;50.852;3.816;2023-07-20T01:01:05;17.60;99.90
22765;DHT22;11549;50.852;3.816;2023-07-20T01:03:35;17.60;99.90
22765;DHT22;11549;50.852;3.816;2023-07-20T01:06:14;17.60;99.90
22765;DHT22;11549;50.852;3.816;2023-07-20T01:08:51;17.60;99.90
22765;DHT22;11549;50.852;3.816;2023-07-20T01:11:29;17.60;99.90
22765;DHT22;11549;50.852;3.816;2023-07-20T01:14:02;17.60;99.90
22765;DHT22;11549;50.852;3.816;2023-07-20T01:16:31;17.50;99.90
22765;DHT22;11549;50.852;3.816;2023-07-20T01:19:00;17.40;99.90
22765;DHT22;11549;50.852;3.816;2023-07-20T01:21:34;17.50;99.90
22765;DHT22;11549;50.852;3.816;2023-07-20T01:24:23;17.40;99.90
22765;DHT22;11549;50.852;3.816;2023-07-20T01:27:07;17.40;99.90
22765;DHT22;11549;50.852;3.816;2023-07-20T01:29:55;17.30;99.90
22765;DHT22;11549;50.852;3.816;2023-07-20T01:32:28;17.30;99.90
22765;DHT22;11549;50.852;3.816;2023-07-20T01:34:58;17.20;99.90
22765;DHT22;11549;50.852;3.816;2023-07-20T01:37:28;17.20;99.90
22765;DHT22;11549;50.852;3.816;2023-07-20T01:39:58;17.20;99.90
22765;DHT22;11549;50.852;3.816;2023-07-20T01:42:30;17.30;99.90
22765;DHT22;11549;50.852;3.816;2023-07-20T01:44:59;17.30;99.90
22765;DHT22;11549;50.852;3.816;2023-07-20T01:47:28;17.30;99.90
22765;DHT22;11549;50.852;3.816;2023-07-20T01:49:57;17.20;99.90
22765;DHT22;11549;50.852;3.816;2023-07-20T01:52:25;17.20;99.90
22765;DHT22;11549;50.852;3.816;2023-07-20T01:54:53;17.20;99.90
22765;DHT22;11549;50.852;3.816;2023-07-20T01:57:22;17.10;99.90
22765;DHT22;11549;50.852;3.816;2023-07-20T01:59:50;17.10;99.90
22765;DHT22;11549;50.852;3.816;2023-07-20T02:02:18;17.10;99.90
22765;DHT22;11549;50.852;3.816;2023-07-20T02:04:49;17.10;99.90
22765;DHT22;11549;50.852;3.816;2023-07-20T02:07:17;17.20;99.90
22765;DHT22;11549;50.852;3.816;2023-07-20T02:09:46;17.20;99.90
22765;DHT22;11549;50.852;3.816;2023-07-20T02:12:14;17.20;99.90
22765;DHT22;11549;50.852;3.816;2023-07-20T02:14:43;17.20;99.90
22765;DHT22;11549;50.852;3.816;2023-07-20T02:17:11;17.20;99.90
22765;DHT22;11549;50.852;3.816;2023-07-20T02:19:40;17.20;99.90
22765;DHT22;11549;50.852;3.816;2023-07-20T02:22:10;17.20;99.90
22765;DHT22;11549;50.852;3.816;2023-07-20T02:24:38;17.20;99.90
22765;DHT22;11549;50.852;3.816;2023-07-20T02:27:07;17.20;99.90
22765;DHT22;11549;50.852;3.816;2023-07-20T02:29:35;17.20;99.90
22765;DHT22;11549;50.852;3.816;2023-07-20T02:32:05;17.20;99.90
22765;DHT22;11549;50.852;3.816;2023-07-20T02:34:33;17.20;99.90
22765;DHT22;11549;50.852;3.816;2023-07-20T02:37:02;17.10;99.90
22765;DHT22;11549;50.852;3.816;2023-07-20T02:39:32;17.20;99.90
22765;DHT22;11549;50.852;3.816;2023-07-20T02:42:01;17.20;99.90
22765;DHT22;11549;50.852;3.816;2023-07-20T02:44:29;17.20;99.90
22765;DHT22;11549;50.852;3.816;2023-07-20T02:46:58;17.20;99.90
22765;DHT22;11549;50.852;3.816;2023-07-20T02:49:26;17.20;99.90
22765;DHT22;11549;50.852;3.816;2023-07-20T02:51:55;17.20;99.90
22765;DHT22;11549;50.852;3.816;2023-07-20T02:54:23;17.20;99.90
22765;DHT22;11549;50.852;3.816;2023-07-20T02:56:53;17.10;99.90
22765;DHT22;11549;50.852;3.816;2023-07-20T02:59:21;17.10;99.90
22765;DHT22;11549;50.852;3.816;2023-07-20T03:01:50;17.10;99.90
22765;DHT22;11549;50.852;3.816;2023-07-20T03:04:18;17.10;99.90
22765;DHT22;11549;50.852;3.816;2023-07-20T03:06:47;17.10;99.90
22765;DHT22;11549;50.852;3.816;2023-07-20T03:09:15;17.20;99.90
22765;DHT22;11549;50.852;3.816;2023-07-20T03:11:43;17.20;99.90
22765;DHT22;11549;50.852;3.816;2023-07-20T03:14:13;17.30;99.90
22765;DHT22;11549;50.852;3.816;2023-07-20T03:16:42;17.30;99.90
22765;DHT22;11549;50.852;3.816;2023-07-20T03:19:10;17.30;99.90
22765;DHT22;11549;50.852;3.816;2023-07-20T03:21:39;17.20;99.90
22765;DHT22;11549;50.852;3.816;2023-07-20T03:24:08;17.20;99.90
22765;DHT22;11549;50.852;3.816;2023-07-20T03:26:36;17.30;99.90
22765;DHT22;11549;50.852;3.816;2023-07-20T03:29:05;17.30;99.90
22765;DHT22;11549;50.852;3.816;2023-07-20T03:31:34;17.30;99.90
22765;DHT22;11549;50.852;3.816;2023-07-20T03:34:03;17.40;99.90
22765;DHT22;11549;50.852;3.816;2023-07-20T03:36:32;17.30;99.90
22765;DHT22;11549;50.852;3.816;2023-07-20T03:39:00;17.30;99.90
22765;DHT22;11549;50.852;3.816;2023-07-20T03:41:29;17.30;99.90
22765;DHT22;11549;50.852;3.816;2023-07-20T03:43:58;17.30;99.90
22765;DHT22;11549;50.852;3.816;2023-07-20T03:46:26;17.30;99.90
22765;DHT22;11549;50.852;3.816;2023-07-20T03:48:56;17.30;99.90
22765;DHT22;11549;50.852;3.816;2023-07-20T03:51:24;17.30;99.90
22765;DHT22;11549;50.852;3.816;2023-07-20T03:53:53;17.40;99.90
22765;DHT22;11549;50.852;3.816;2023-07-20T03:56:21;17.40;99.90
22765;DHT22;11549;50.852;3.816;2023-07-20T03:58:50;17.40;99.90
22765;DHT22;11549;50.852;3.816;2023-07-20T04:01:18;17.40;99.90
22765;DHT22;11549;50.852;3.816;2023-07-20T04:03:47;17.50;99.90
22765;DHT22;11549;50.852;3.816;2023-07-20T04:06:17;17.40;99.90
22765;DHT22;11549;50.852;3.816;2023-07-20T04:08:46;17.40;99.90
22765;DHT22;11549;50.852;3.816;2023-07-20T04:11:15;17.40;99.90
22765;DHT22;11549;50.852;3.816;2023-07-20T04:13:44;17.40;99.90
22765;DHT22;11549;50.852;3.816;2023-07-20T04:16:12;17.40;99.90
22765;DHT22;11549;50.852;3.816;2023-07-20T04:18:40;17.40;99.90
22765;DHT22;11549;50.852;3.816;2023-07-20T04:21:09;17.40;99.90
22765;DHT22;11549;50.852;3.816;2023-07-20T04:23:39;17.40;99.90
22765;DHT22;11549;50.852;3.816;2023-07-20T04:26:07;17.40;99.90
22765;DHT22;11549;50.852;3.816;2023-07-20T04:28:36;17.40;99.90
22765;DHT22;11549;50.852;3.816;2023-07-20T04:31:10;17.30;99.90
22765;DHT22;11549;50.852;3.816;2023-07-20T04:33:39;17.40;99.90
22765;DHT22;11549;50.852;3.816;2023-07-20T04:36:08;17.40;99.90
22765;DHT22;11549;50.852;3.816;2023-07-20T04:38:36;17.40;99.90
22765;DHT22;11549;50.852;3.816;2023-07-20T04:41:06;17.40;99.90
22765;DHT22;11549;50.852;3.816;2023-07-20T04:43:34;17.40;99.90
22765;DHT22;11549;50.852;3.816;2023-07-20T04:46:02;17.40;99.90
22765;DHT22;11549;50.852;3.816;2023-07-20T04:48:30;17.50;99.90
22765;DHT22;11549;50.852;3.816;2023-07-20T04:50:59;17.40;99.90
22765;DHT22;11549;50.852;3.816;2023-07-20T04:53:27;17.50;99.90
22765;DHT22;11549;50.852;3.816;2023-07-20T04:55:55;17.50;99.90
22765;DHT22;11549;50.852;3.816;2023-07-20T04:58:25;17.50;99.90
22765;DHT22;11549;50.852;3.816;2023-07-20T05:00:53;17.50;99.90
22765;DHT22;11549;50.852;3.816;2023-07-20T05:03:22;17.50;99.90
22765;DHT22;11549;50.852;3.816;2023-07-20T05:05:50;17.50;99.90
22765;DHT22;11549;50.852;3.816;2023-07-20T05:08:19;17.40;99.90
22765;DHT22;11549;50.852;3.816;2023-07-20T05:10:49;17.40;99.90
22765;DHT22;11549;50.852;3.816;2023-07-20T05:13:18;17.40;99.90
22765;DHT22;11549;50.852;3.816;2023-07-20T05:15:51;17.40;99.90
22765;DHT22;11549;50.852;3.816;2023-07-20T05:18:20;17.40;99.90
22765;DHT22;11549;50.852;3.816;2023-07-20T05:20:48;17.50;99.90
22765;DHT22;11549;50.852;3.816;2023-07-20T05:23:18;17.40;99.90
22765;DHT22;11549;50.852;3.816;2023-07-20T05:25:47;17.40;99.90
22765;DHT22;11549;50.852;3.816;2023-07-20T05:28:21;17.40;99.90
22765;DHT22;11549;50.852;3.816;2023-07-20T05:30:51;17.50;99.90
22765;DHT22;11549;50.852;3.816;2023-07-20T05:33:20;17.40;99.90
22765;DHT22;11549;50.852;3.816;2023-07-20T05:35:49;17.50;99.90
22765;DHT22;11549;50.852;3.816;2023-07-20T05:38:17;17.50;99.90
22765;DHT22;11549;50.852;3.816;2023-07-20T05:40:46;17.60;99.90
22765;DHT22;11549;50.852;3.816;2023-07-20T05:43:14;17.60;99.90
22765;DHT22;11549;50.852;3.816;2023-07-20T05:45:43;17.60;99.90
22765;DHT22;11549;50.852;3.816;2023-07-20T05:48:13;17.70;99.90
22765;DHT22;11549;50.852;3.816;2023-07-20T05:50:42;17.80;99.90
22765;DHT22;11549;50.852;3.816;2023-07-20T05:53:11;17.80;99.90
22765;DHT22;11549;50.852;3.816;2023-07-20T05:55:39;17.90;99.90
22765;DHT22;11549;50.852;3.816;2023-07-20T05:58:08;18.00;99.90
22765;DHT22;11549;50.852;3.816;2023-07-20T06:00:36;18.00;99.90
22765;DHT22;11549;50.852;3.816;2023-07-20T06:03:05;18.10;99.90
22765;DHT22;11549;50.852;3.816;2023-07-20T06:05:34;18.10;99.90
22765;DHT22;11549;50.852;3.816;2023-07-20T06:08:03;18.20;99.90
22765;DHT22;11549;50.852;3.816;2023-07-20T06:10:32;18.20;99.90
22765;DHT22;11549;50.852;3.816;2023-07-20T06:13:00;18.20;99.90
22765;DHT22;11549;50.852;3.816;2023-07-20T06:15:30;18.30;99.90
22765;DHT22;11549;50.852;3.816;2023-07-20T06:17:59;18.50;99.90
22765;DHT22;11549;50.852;3.816;2023-07-20T06:20:28;18.70;99.90
22765;DHT22;11549;50.852;3.816;2023-07-20T06:22:57;18.90;99.90
22765;DHT22;11549;50.852;3.816;2023-07-20T06:25:26;19.20;99.90
22765;DHT22;11549;50.852;3.816;2023-07-20T06:27:55;19.50;99.90
22765;DHT22;11549;50.852;3.816;2023-07-20T06:30:24;19.70;99.90
22765;DHT22;11549;50.852;3.816;2023-07-20T06:32:52;19.90;99.90
22765;DHT22;11549;50.852;3.816;2023-07-20T06:35:21;20.10;99.90
22765;DHT22;11549;50.852;3.816;2023-07-20T06:37:49;20.30;99.90
22765;DHT22;11549;50.852;3.816;2023-07-20T06:40:21;20.30;99.90
22765;DHT22;11549;50.852;3.816;2023-07-20T06:42:52;20.20;99.90
22765;DHT22;11549;50.852;3.816;2023-07-20T06:45:24;20.20;99.90
22765;DHT22;11549;50.852;3.816;2023-07-20T06:47:52;20.40;99.90
22765;DHT22;11549;50.852;3.816;2023-07-20T06:50:20;20.60;99.90
22765;DHT22;11549;50.852;3.816;2023-07-20T06:52:53;20.60;99.90
22765;DHT22;11549;50.852;3.816;2023-07-20T06:55:26;20.60;99.90
22765;DHT22;11549;50.852;3.816;2023-07-20T06:57:55;20.70;99.90
22765;DHT22;11549;50.852;3.816;2023-07-20T07:00:25;20.60;99.90
22765;DHT22;11549;50.852;3.816;2023-07-20T07:02:54;20.70;99.90
22765;DHT22;11549;50.852;3.816;2023-07-20T07:05:22;20.60;99.90
22765;DHT22;11549;50.852;3.816;2023-07-20T07:08:00;20.60;99.90
22765;DHT22;11549;50.852;3.816;2023-07-20T07:10:30;21.00;99.90
22765;DHT22;11549;50.852;3.816;2023-07-20T07:12:59;21.10;99.90
22765;DHT22;11549;50.852;3.816;2023-07-20T07:15:27;21.30;99.90
22765;DHT22;11549;50.852;3.816;2023-07-20T07:17:56;21.50;99.90
22765;DHT22;11549;50.852;3.816;2023-07-20T07:20:26;21.60;99.90
22765;DHT22;11549;50.852;3.816;2023-07-20T07:22:55;21.80;99.90
22765;DHT22;11549;50.852;3.816;2023-07-20T07:25:24;21.90;99.90
22765;DHT22;11549;50.852;3.816;2023-07-20T07:27:55;22.00;99.90
22765;DHT22;11549;50.852;3.816;2023-07-20T07:30:24;22.30;99.90
22765;DHT22;11549;50.852;3.816;2023-07-20T07:32:52;22.60;99.90
22765;DHT22;11549;50.852;3.816;2023-07-20T07:35:21;22.90;99.90
22765;DHT22;11549;50.852;3.816;2023-07-20T07:37:50;23.30;99.90
22765;DHT22;11549;50.852;3.816;2023-07-20T07:40:38;23.50;99.90
22765;DHT22;11549;50.852;3.816;2023-07-20T07:43:08;23.60;99.90
22765;DHT22;11549;50.852;3.816;2023-07-20T07:45:37;24.00;99.90
22765;DHT22;11549;50.852;3.816;2023-07-20T07:48:06;24.20;99.90
22765;DHT22;11549;50.852;3.816;2023-07-20T07:50:34;24.30;99.90
22765;DHT22;11549;50.852;3.816;2023-07-20T07:53:02;24.50;99.90
22765;DHT22;11549;50.852;3.816;2023-07-20T07:55:31;24.70;99.90
22765;DHT22;11549;50.852;3.816;2023-07-20T07:57:59;25.20;99.90
22765;DHT22;11549;50.852;3.816;2023-07-20T08:00:29;25.70;99.90
22765;DHT22;11549;50.852;3.816;2023-07-20T08:02:58;25.70;99.90
22765;DHT22;11549;50.852;3.816;2023-07-20T08:05:27;25.50;99.90
22765;DHT22;11549;50.852;3.816;2023-07-20T08:07:56;25.40;99.90
22765;DHT22;11549;50.852;3.816;2023-07-20T08:10:25;25.40;99.90
22765;DHT22;11549;50.852;3.816;2023-07-20T08:12:53;25.30;99.90
22765;DHT22;11549;50.852;3.816;2023-07-20T08:15:22;25.10;99.90
22765;DHT22;11549;50.852;3.816;2023-07-20T08:17:52;25.10;99.90
22765;DHT22;11549;50.852;3.816;2023-07-20T08:20:20;25.10;99.90
22765;DHT22;11549;50.852;3.816;2023-07-20T08:22:54;25.00;99.90
22765;DHT22;11549;50.852;3.816;2023-07-20T08:25:23;24.50;99.90
22765;DHT22;11549;50.852;3.816;2023-07-20T08:27:51;23.80;99.90
22765;DHT22;11549;50.852;3.816;2023-07-20T08:30:21;23.30;99.90
22765;DHT22;11549;50.852;3.816;2023-07-20T08:32:51;23.00;99.90
22765;DHT22;11549;50.852;3.816;2023-07-20T08:35:20;23.20;99.90
22765;DHT22;11549;50.852;3.816;2023-07-20T08:37:49;23.50;99.90
22765;DHT22;11549;50.852;3.816;2023-07-20T08:40:17;23.70;99.90
22765;DHT22;11549;50.852;3.816;2023-07-20T08:42:46;24.10;99.90
22765;DHT22;11549;50.852;3.816;2023-07-20T08:45:16;24.40;99.90
22765;DHT22;11549;50.852;3.816;2023-07-20T08:47:45;24.50;99.90
22765;DHT22;11549;50.852;3.816;2023-07-20T08:50:18;24.70;99.90
22765;DHT22;11549;50.852;3.816;2023-07-20T08:52:48;24.70;99.90
22765;DHT22;11549;50.852;3.816;2023-07-20T08:55:19;24.90;99.90
22765;DHT22;11549;50.852;3.816;2023-07-20T08:57:50;25.10;99.90
22765;DHT22;11549;50.852;3.816;2023-07-20T09:00:20;25.30;99.90
22765;DHT22;11549;50.852;3.816;2023-07-20T09:02:50;25.30;99.90
22765;DHT22;11549;50.852;3.816;2023-07-20T09:05:20;25.30;99.90
22765;DHT22;11549;50.852;3.816;2023-07-20T09:07:51;25.10;99.90
22765;DHT22;11549;50.852;3.816;2023-07-20T09:10:21;24.90;99.90
22765;DHT22;11549;50.852;3.816;2023-07-20T09:12:50;24.80;99.90
22765;DHT22;11549;50.852;3.816;2023-07-20T09:15:20;25.10;99.90
22765;DHT22;11549;50.852;3.816;2023-07-20T09:17:49;25.30;99.90
22765;DHT22;11549;50.852;3.816;2023-07-20T09:20:20;25.30;99.90
22765;DHT22;11549;50.852;3.816;2023-07-20T09:22:51;25.40;99.90
22765;DHT22;11549;50.852;3.816;2023-07-20T09:25:20;25.70;99.90
22765;DHT22;11549;50.852;3.816;2023-07-20T09:27:52;25.90;99.90
22765;DHT22;11549;50.852;3.816;2023-07-20T09:30:25;25.70;99.90
22765;DHT22;11549;50.852;3.816;2023-07-20T09:32:58;25.70;99.90
22765;DHT22;11549;50.852;3.816;2023-07-20T09:35:29;25.60;99.90
22765;DHT22;11549;50.852;3.816;2023-07-20T09:38:09;25.70;99.90
22765;DHT22;11549;50.852;3.816;2023-07-20T09:40:41;25.70;99.90
22765;DHT22;11549;50.852;3.816;2023-07-20T09:43:12;25.70;99.90
22765;DHT22;11549;50.852;3.816;2023-07-20T09:45:44;25.70;99.90
22765;DHT22;11549;50.852;3.816;2023-07-20T09:48:15;25.80;99.90
22765;DHT22;11549;50.852;3.816;2023-07-20T09:50:50;25.90;99.90
22765;DHT22;11549;50.852;3.816;2023-07-20T09:53:19;26.00;99.90
22765;DHT22;11549;50.852;3.816;2023-07-20T09:55:48;25.80;99.90
22765;DHT22;11549;50.852;3.816;2023-07-20T09:58:17;25.60;99.90
22765;DHT22;11549;50.852;3.816;2023-07-20T10:00:46;25.70;99.90
22765;DHT22;11549;50.852;3.816;2023-07-20T10:03:22;26.00;99.90
22765;DHT22;11549;50.852;3.816;2023-07-20T10:05:56;26.00;99.90
22765;DHT22;11549;50.852;3.816;2023-07-20T10:08:26;25.80;99.90
22765;DHT22;11549;50.852;3.816;2023-07-20T10:11:00;25.60;99.90
22765;DHT22;11549;50.852;3.816;2023-07-20T10:13:30;25.40;99.90
22765;DHT22;11549;50.852;3.816;2023-07-20T10:16:02;25.30;99.90
22765;DHT22;11549;50.852;3.816;2023-07-20T10:18:35;25.40;99.90
22765;DHT22;11549;50.852;3.816;2023-07-20T10:21:10;25.90;99.90
22765;DHT22;11549;50.852;3.816;2023-07-20T10:23:43;26.60;99.90
22765;DHT22;11549;50.852;3.816;2023-07-20T10:26:13;26.80;99.90
22765;DHT22;11549;50.852;3.816;2023-07-20T10:28:42;26.90;99.90
22765;DHT22;11549;50.852;3.816;2023-07-20T10:31:13;26.70;99.90
22765;DHT22;11549;50.852;3.816;2023-07-20T10:33:43;26.70;99.90
22765;DHT22;11549;50.852;3.816;2023-07-20T10:36:14;26.90;99.90
22765;DHT22;11549;50.852;3.816;2023-07-20T10:38:52;27.10;99.90
22765;DHT22;11549;50.852;3.816;2023-07-20T10:41:22;27.30;99.20
22765;DHT22;11549;50.852;3.816;2023-07-20T10:43:58;27.30;98.10
22765;DHT22;11549;50.852;3.816;2023-07-20T10:46:50;26.90;97.90
22765;DHT22;11549;50.852;3.816;2023-07-20T10:49:26;26.70;98.10
22765;DHT22;11549;50.852;3.816;2023-07-20T10:51:59;26.50;99.90
22765;DHT22;11549;50.852;3.816;2023-07-20T10:54:46;26.20;99.80
22765;DHT22;11549;50.852;3.816;2023-07-20T10:57:23;26.00;99.90
22765;DHT22;11549;50.852;3.816;2023-07-20T10:59:51;25.90;99.90
22765;DHT22;11549;50.852;3.816;2023-07-20T11:02:20;25.70;99.90
22765;DHT22;11549;50.852;3.816;2023-07-20T11:04:48;25.70;99.90
22765;DHT22;11549;50.852;3.816;2023-07-20T11:07:36;26.00;99.90
22765;DHT22;11549;50.852;3.816;2023-07-20T11:10:15;26.10;99.90
22765;DHT22;11549;50.852;3.816;2023-07-20T11:16:00;25.90;99.90
22765;DHT22;11549;50.852;3.816;2023-07-20T11:18:29;25.60;99.90
22765;DHT22;11549;50.852;3.816;2023-07-20T11:20:59;25.50;99.90
22765;DHT22;11549;50.852;3.816;2023-07-20T11:23:29;25.40;99.90
22765;DHT22;11549;50.852;3.816;2023-07-20T11:26:00;25.10;99.90
22765;DHT22;11549;50.852;3.816;2023-07-20T11:28:30;24.80;99.90
22765;DHT22;11549;50.852;3.816;2023-07-20T11:30:58;24.70;99.90
22765;DHT22;11549;50.852;3.816;2023-07-20T11:33:27;24.50;99.90
22765;DHT22;11549;50.852;3.816;2023-07-20T11:35:55;24.50;99.90
22765;DHT22;11549;50.852;3.816;2023-07-20T11:38:24;24.50;99.90
22765;DHT22;11549;50.852;3.816;2023-07-20T11:40:54;24.40;99.90
22765;DHT22;11549;50.852;3.816;2023-07-20T11:43:23;24.30;99.90
22765;DHT22;11549;50.852;3.816;2023-07-20T11:45:53;24.20;99.90
22765;DHT22;11549;50.852;3.816;2023-07-20T11:48:21;24.10;99.90
22765;DHT22;11549;50.852;3.816;2023-07-20T11:50:49;24.00;99.90
22765;DHT22;11549;50.852;3.816;2023-07-20T11:53:18;23.90;99.90
22765;DHT22;11549;50.852;3.816;2023-07-20T11:55:47;23.80;99.90
22765;DHT22;11549;50.852;3.816;2023-07-20T11:58:17;23.70;99.90
22765;DHT22;11549;50.852;3.816;2023-07-20T12:00:45;23.60;99.90
22765;DHT22;11549;50.852;3.816;2023-07-20T12:03:14;23.50;99.90
22765;DHT22;11549;50.852;3.816;2023-07-20T12:05:43;23.70;99.90
22765;DHT22;11549;50.852;3.816;2023-07-20T12:08:27;23.70;99.90
22765;DHT22;11549;50.852;3.816;2023-07-20T12:10:56;23.70;99.90
22765;DHT22;11549;50.852;3.816;2023-07-20T12:13:35;23.60;99.90
22765;DHT22;11549;50.852;3.816;2023-07-20T12:16:09;23.50;99.90
22765;DHT22;11549;50.852;3.816;2023-07-20T12:18:39;23.40;99.90
22765;DHT22;11549;50.852;3.816;2023-07-20T12:21:08;23.40;99.90
22765;DHT22;11549;50.852;3.816;2023-07-20T12:23:38;23.30;99.90
22765;DHT22;11549;50.852;3.816;2023-07-20T12:26:07;22.90;99.90
22765;DHT22;11549;50.852;3.816;2023-07-20T12:28:41;22.60;99.90
22765;DHT22;11549;50.852;3.816;2023-07-20T12:31:10;22.10;99.90
22765;DHT22;11549;50.852;3.816;2023-07-20T12:33:40;21.90;99.90
22765;DHT22;11549;50.852;3.816;2023-07-20T12:36:09;21.80;99.90
22765;DHT22;11549;50.852;3.816;2023-07-20T12:38:38;21.50;99.90
22765;DHT22;11549;50.852;3.816;2023-07-20T12:41:06;21.40;99.90
22765;DHT22;11549;50.852;3.816;2023-07-20T12:43:34;21.30;99.90
22765;DHT22;11549;50.852;3.816;2023-07-20T12:46:04;21.20;99.90
22765;DHT22;11549;50.852;3.816;2023-07-20T12:48:33;21.20;99.90
22765;DHT22;11549;50.852;3.816;2023-07-20T12:51:02;21.20;99.90
22765;DHT22;11549;50.852;3.816;2023-07-20T12:53:31;21.30;99.90
22765;DHT22;11549;50.852;3.816;2023-07-20T12:56:00;21.20;99.90
22765;DHT22;11549;50.852;3.816;2023-07-20T12:58:48;21.30;99.90
22765;DHT22;11549;50.852;3.816;2023-07-20T13:01:18;21.50;99.90
22765;DHT22;11549;50.852;3.816;2023-07-20T13:03:47;21.60;99.90
22765;DHT22;11549;50.852;3.816;2023-07-20T13:06:18;21.90;99.90
22765;DHT22;11549;50.852;3.816;2023-07-20T13:08:50;22.20;99.90
22765;DHT22;11549;50.852;3.816;2023-07-20T13:11:22;22.60;99.90
22765;DHT22;11549;50.852;3.816;2023-07-20T13:13:52;23.10;99.90
22765;DHT22;11549;50.852;3.816;2023-07-20T13:16:22;23.30;99.90
22765;DHT22;11549;50.852;3.816;2023-07-20T13:18:50;23.40;99.90
22765;DHT22;11549;50.852;3.816;2023-07-20T13:21:19;23.50;99.90
22765;DHT22;11549;50.852;3.816;2023-07-20T13:23:52;23.80;99.90
22765;DHT22;11549;50.852;3.816;2023-07-20T13:26:20;23.90;99.90
22765;DHT22;11549;50.852;3.816;2023-07-20T13:28:49;23.90;99.90
22765;DHT22;11549;50.852;3.816;2023-07-20T13:31:17;24.00;99.90
22765;DHT22;11549;50.852;3.816;2023-07-20T13:33:52;24.00;99.90
22765;DHT22;11549;50.852;3.816;2023-07-20T13:36:26;24.00;99.90
22765;DHT22;11549;50.852;3.816;2023-07-20T13:38:56;23.80;99.90
22765;DHT22;11549;50.852;3.816;2023-07-20T13:41:26;23.70;99.90
22765;DHT22;11549;50.852;3.816;2023-07-20T13:43:56;23.80;99.90
22765;DHT22;11549;50.852;3.816;2023-07-20T13:46:25;23.80;99.90
22765;DHT22;11549;50.852;3.816;2023-07-20T13:48:58;23.70;99.90
22765;DHT22;11549;50.852;3.816;2023-07-20T13:51:26;23.70;99.90
22765;DHT22;11549;50.852;3.816;2023-07-20T13:53:55;23.90;99.90
22765;DHT22;11549;50.852;3.816;2023-07-20T13:56:24;23.90;99.90
22765;DHT22;11549;50.852;3.816;2023-07-20T13:58:52;23.90;99.90
22765;DHT22;11549;50.852;3.816;2023-07-20T14:01:25;23.90;99.90
22765;DHT22;11549;50.852;3.816;2023-07-20T14:03:57;23.70;99.90
22765;DHT22;11549;50.852;3.816;2023-07-20T14:06:32;23.40;99.90
22765;DHT22;11549;50.852;3.816;2023-07-20T14:09:01;23.30;99.90
22765;DHT22;11549;50.852;3.816;2023-07-20T14:11:30;23.20;99.90
22765;DHT22;11549;50.852;3.816;2023-07-20T14:14:01;23.20;99.90
22765;DHT22;11549;50.852;3.816;2023-07-20T14:16:30;23.00;99.90
22765;DHT22;11549;50.852;3.816;2023-07-20T14:19:01;23.00;99.90
22765;DHT22;11549;50.852;3.816;2023-07-20T14:21:30;22.90;99.90
22765;DHT22;11549;50.852;3.816;2023-07-20T14:24:00;22.80;99.90
22765;DHT22;11549;50.852;3.816;2023-07-20T14:26:29;22.60;99.90
22765;DHT22;11549;50.852;3.816;2023-07-20T14:28:59;22.50;99.90
22765;DHT22;11549;50.852;3.816;2023-07-20T14:31:28;22.40;99.90
22765;DHT22;11549;50.852;3.816;2023-07-20T14:33:59;22.30;99.90
22765;DHT22;11549;50.852;3.816;2023-07-20T14:36:29;22.00;99.90
22765;DHT22;11549;50.852;3.816;2023-07-20T14:39:00;21.50;99.90
22765;DHT22;11549;50.852;3.816;2023-07-20T14:41:29;20.90;99.90
22765;DHT22;11549;50.852;3.816;2023-07-20T14:43:57;20.50;99.90
22765;DHT22;11549;50.852;3.816;2023-07-20T14:46:25;20.00;99.90
22765;DHT22;11549;50.852;3.816;2023-07-20T14:48:55;19.60;99.90
22765;DHT22;11549;50.852;3.816;2023-07-20T14:51:23;19.40;99.90
22765;DHT22;11549;50.852;3.816;2023-07-20T14:54:06;19.10;99.90
22765;DHT22;11549;50.852;3.816;2023-07-20T14:56:35;19.10;99.90
22765;DHT22;11549;50.852;3.816;2023-07-20T14:59:04;18.90;99.90
22765;DHT22;11549;50.852;3.816;2023-07-20T15:01:33;18.50;99.90
22765;DHT22;11549;50.852;3.816;2023-07-20T15:04:01;18.50;99.90
22765;DHT22;11549;50.852;3.816;2023-07-20T15:06:30;18.50;99.90
22765;DHT22;11549;50.852;3.816;2023-07-20T15:08:59;18.50;99.90
22765;DHT22;11549;50.852;3.816;2023-07-20T15:11:29;18.50;99.90
22765;DHT22;11549;50.852;3.816;2023-07-20T15:13:57;18.50;99.90
22765;DHT22;11549;50.852;3.816;2023-07-20T15:16:26;18.70;99.90
22765;DHT22;11549;50.852;3.816;2023-07-20T15:18:54;18.70;99.90
22765;DHT22;11549;50.852;3.816;2023-07-20T15:21:23;18.60;99.90
22765;DHT22;11549;50.852;3.816;2023-07-20T15:23:52;18.70;99.90
22765;DHT22;11549;50.852;3.816;2023-07-20T15:26:21;18.60;99.90
22765;DHT22;11549;50.852;3.816;2023-07-20T15:28:51;18.70;99.90
22765;DHT22;11549;50.852;3.816;2023-07-20T15:31:19;18.70;99.90
22765;DHT22;11549;50.852;3.816;2023-07-20T15:34:08;18.70;99.90
22765;DHT22;11549;50.852;3.816;2023-07-20T15:36:40;18.70;99.90
22765;DHT22;11549;50.852;3.816;2023-07-20T15:39:09;18.60;99.90
22765;DHT22;11549;50.852;3.816;2023-07-20T15:41:37;18.60;99.90
22765;DHT22;11549;50.852;3.816;2023-07-20T15:44:06;18.60;99.90
22765;DHT22;11549;50.852;3.816;2023-07-20T15:46:44;18.60;99.90
22765;DHT22;11549;50.852;3.816;2023-07-20T15:49:15;18.60;99.90
22765;DHT22;11549;50.852;3.816;2023-07-20T15:51:44;18.50;99.90